createdAt,value
2019-06-20T00:00:01.381Z,33.6
2019-06-20T00:05:01.244Z,34.0
2019-06-20T00:10:01.564Z,33.4
2019-06-20T00:15:01.253Z,33.5
2019-06-20T00:20:06.402Z,33.9
2019-06-20T00:25:03.251Z,33.9
2019-06-20T00:31:01.341Z,33.4
2019-06-20T00:36:06.255Z,33.6
2019-06-20T00:41:01.300Z,34.0
2019-06-20T00:46:01.286Z,33.6
2019-06-20T00:51:01.354Z,33.6
2019-06-20T00:56:01.324Z,33.6
2019-06-20T01:01:01.405Z,33.2
2019-06-20T01:06:01.347Z,33.2
2019-06-20T01:11:01.252Z,33.8
2019-06-20T01:21:01.317Z,33.5
2019-06-20T01:26:01.260Z,34.3
2019-06-20T01:31:01.370Z,34.7
2019-06-20T01:36:01.245Z,34.9
2019-06-20T01:41:06.709Z,36.2
2019-06-20T01:46:06.248Z,36.6
2019-06-20T01:51:06.324Z,37.0
2019-06-20T01:56:06.260Z,36.7
2019-06-20T02:01:06.396Z,36.6
2019-06-20T02:06:06.248Z,36.2
2019-06-20T02:11:11.326Z,36.6
2019-06-20T02:16:11.261Z,36.6
2019-06-20T02:21:06.385Z,36.7
2019-06-20T02:26:06.257Z,36.8
2019-06-20T02:31:06.334Z,36.4
2019-06-20T02:36:06.330Z,35.8
2019-06-20T02:41:06.395Z,35.4
2019-06-20T02:46:01.212Z,35.1
2019-06-20T02:51:01.373Z,35.0
2019-06-20T02:56:01.242Z,34.3
2019-06-20T03:01:01.282Z,33.4
2019-06-20T03:06:01.218Z,32.4
2019-06-20T03:11:01.311Z,31.1
2019-06-20T03:16:06.256Z,29.7
2019-06-20T03:21:01.376Z,29.6
2019-06-20T03:26:01.235Z,29.4
2019-06-20T03:31:01.312Z,29.4
2019-06-20T03:36:01.253Z,28.9
2019-06-20T03:41:01.311Z,28.2
2019-06-20T03:46:01.212Z,28.0
2019-06-20T03:51:01.304Z,27.3
2019-06-20T03:56:01.239Z,26.9
2019-06-20T04:01:01.377Z,27.4
2019-06-20T04:06:01.250Z,28.2
2019-06-20T04:11:01.318Z,28.4
2019-06-20T04:16:01.258Z,29.6
2019-06-20T04:21:01.315Z,30.5
2019-06-20T04:26:07.357Z,31.0
2019-06-20T04:31:11.322Z,31.6
2019-06-20T04:36:01.281Z,32.7
2019-06-20T04:41:01.450Z,33.5
2019-06-20T04:46:06.265Z,34.2
2019-06-20T04:51:01.378Z,35.7
2019-06-20T04:56:06.066Z,36.9
2019-06-20T05:01:01.311Z,37.4
2019-06-20T05:06:01.245Z,38.3
2019-06-20T05:11:01.379Z,39.0
2019-06-20T05:16:01.255Z,38.8
2019-06-20T05:21:01.325Z,39.4
2019-06-20T05:26:01.243Z,40.0
2019-06-20T05:31:01.370Z,40.2
2019-06-20T05:36:01.244Z,40.5
2019-06-20T05:41:01.382Z,41.3
2019-06-20T05:46:11.216Z,41.0
2019-06-20T05:51:01.378Z,40.6
2019-06-20T05:56:06.277Z,40.2
2019-06-20T06:01:06.327Z,39.8
2019-06-20T06:06:06.274Z,39.0
2019-06-20T06:11:01.314Z,37.7
2019-06-20T06:21:01.719Z,37.2
2019-06-20T06:26:01.255Z,36.2
2019-06-20T06:31:01.341Z,35.9
2019-06-20T06:36:06.264Z,36.1
2019-06-20T06:41:01.329Z,35.0
2019-06-20T06:47:01.250Z,34.4
2019-06-20T06:52:01.248Z,34.5
2019-06-20T06:57:01.254Z,34.7
2019-06-20T07:02:01.385Z,34.8
2019-06-20T07:07:01.259Z,34.4
2019-06-20T07:17:01.302Z,34.6
2019-06-20T07:22:06.322Z,33.9
2019-06-20T07:27:06.257Z,33.8
2019-06-20T07:37:01.313Z,33.9
2019-06-20T07:42:01.318Z,33.4
2019-06-20T07:52:01.758Z,33.4
2019-06-20T07:57:01.260Z,33.0
2019-06-20T08:02:01.228Z,32.8
2019-06-20T08:07:01.310Z,32.6
2019-06-20T08:12:01.383Z,33.0
2019-06-20T08:17:02.361Z,33.5
2019-06-20T08:22:01.314Z,35.1
2019-06-20T08:27:04.771Z,35.7
2019-06-20T08:32:02.926Z,36.7
2019-06-20T08:37:02.734Z,37.1
2019-06-20T08:42:02.318Z,36.7
2019-06-20T08:47:03.770Z,35.8
2019-06-20T08:52:01.499Z,36.0
2019-06-20T08:57:01.240Z,35.6
2019-06-20T09:12:02.565Z,34.7
2019-06-20T09:17:01.253Z,34.0
2019-06-20T09:22:01.338Z,33.3
2019-06-20T09:27:01.386Z,32.4
2019-06-20T09:32:01.312Z,32.6
2019-06-20T09:37:01.257Z,33.2
2019-06-20T09:42:01.312Z,33.2
2019-06-20T09:47:02.679Z,33.8
2019-06-20T09:52:01.243Z,34.8
2019-06-20T10:02:01.797Z,35.7
2019-06-20T10:07:01.249Z,36.4
2019-06-20T10:12:01.315Z,36.2
2019-06-20T10:17:01.259Z,35.9
2019-06-20T10:22:01.375Z,35.3
2019-06-20T10:27:01.245Z,34.8
2019-06-20T10:32:01.374Z,34.5
2019-06-20T10:37:01.244Z,34.0
2019-06-20T10:42:01.373Z,33.7
2019-06-20T10:47:06.252Z,33.6
2019-06-20T10:52:01.346Z,34.3
2019-06-20T10:57:01.268Z,35.1
2019-06-20T11:02:01.381Z,35.5
2019-06-20T11:07:01.209Z,35.0
2019-06-20T11:12:01.433Z,35.0
2019-06-20T11:17:01.252Z,34.2
2019-06-20T11:22:01.317Z,33.3
2019-06-20T11:27:01.255Z,33.1
2019-06-20T11:32:01.308Z,33.0
2019-06-20T11:37:01.246Z,32.7
2019-06-20T11:42:01.311Z,32.1
2019-06-20T11:47:01.248Z,31.4
2019-06-20T11:52:01.336Z,30.4
2019-06-20T11:57:01.340Z,30.6
2019-06-20T12:02:01.359Z,30.5
2019-06-20T12:08:01.242Z,30.5
2019-06-20T12:13:01.307Z,30.5
2019-06-20T12:18:01.244Z,29.6
2019-06-20T12:23:01.378Z,27.6
2019-06-20T12:28:01.254Z,25.1
2019-06-20T12:33:01.550Z,21.3
2019-06-20T12:38:06.251Z,17.9
2019-06-20T12:43:06.310Z,16.6
2019-06-20T12:48:06.252Z,14.7
2019-06-20T12:58:01.258Z,14.8
2019-06-20T13:03:01.252Z,15.4
2019-06-20T13:08:01.255Z,14.8
2019-06-20T13:13:01.368Z,14.3
2019-06-20T13:18:01.247Z,13.5
2019-06-20T13:28:01.466Z,12.5
2019-06-20T13:33:01.258Z,12.6
2019-06-20T13:43:01.377Z,12.7
2019-06-20T13:48:01.313Z,12.2
2019-06-20T13:53:01.304Z,12.0
2019-06-20T13:58:01.251Z,11.3
2019-06-20T14:03:01.379Z,10.9
2019-06-20T14:08:01.259Z,10.5
2019-06-20T14:13:01.382Z,10.7
2019-06-20T14:18:01.259Z,10.3
2019-06-20T14:23:01.334Z,10.2
2019-06-20T14:29:01.316Z,9.9
2019-06-20T14:34:01.252Z,10.0
2019-06-20T14:39:01.381Z,9.7
2019-06-20T14:44:01.306Z,9.8
2019-06-20T14:49:01.324Z,10.0
2019-06-20T14:54:01.238Z,10.5
2019-06-20T14:59:06.250Z,10.6
2019-06-20T15:04:01.244Z,11.2
2019-06-20T15:09:06.209Z,11.3
2019-06-20T15:14:01.254Z,10.9
2019-06-20T15:24:01.387Z,10.3
2019-06-20T15:29:01.372Z,9.3
2019-06-20T15:34:01.435Z,9.0
2019-06-20T15:39:01.306Z,9.2
2019-06-20T15:44:01.276Z,9.2
2019-06-20T15:49:16.519Z,9.0
2019-06-20T15:59:01.315Z,8.9
2019-06-20T16:04:06.267Z,8.8
2019-06-20T16:09:01.288Z,8.6
2019-06-20T16:14:01.241Z,8.8
2019-06-20T16:19:01.304Z,8.9
2019-06-20T16:24:01.252Z,9.4
2019-06-20T16:29:06.399Z,9.0
2019-06-20T16:34:01.251Z,9.4
2019-06-20T16:39:11.393Z,9.2
2019-06-20T16:44:06.257Z,9.0
2019-06-20T16:49:01.305Z,8.8
2019-06-20T16:54:01.241Z,8.7
2019-06-20T16:59:06.253Z,8.1
2019-06-20T17:04:01.249Z,8.3
2019-06-20T17:09:01.374Z,8.7
2019-06-20T17:14:01.218Z,8.8
2019-06-20T17:19:01.317Z,9.0
2019-06-20T17:24:01.271Z,9.2
2019-06-20T17:29:01.895Z,9.2
2019-06-20T17:39:01.251Z,8.8
2019-06-20T17:44:06.274Z,9.3
2019-06-20T17:49:01.329Z,9.1
2019-06-20T17:59:01.327Z,8.8
2019-06-20T18:04:14.306Z,9.4
2019-06-20T18:19:01.318Z,8.9
2019-06-20T18:24:06.259Z,9.4
2019-06-20T18:29:06.530Z,9.6
2019-06-20T18:34:06.263Z,9.8
2019-06-20T18:39:01.283Z,9.9
2019-06-20T18:44:01.260Z,10.3
2019-06-20T18:50:01.259Z,9.9
2019-06-20T18:55:01.243Z,9.7
2019-06-20T19:00:01.442Z,9.9
2019-06-20T19:05:01.328Z,10.4
2019-06-20T19:10:01.314Z,10.8
2019-06-20T19:15:01.245Z,10.7
2019-06-20T19:20:01.318Z,11.2
2019-06-20T19:25:04.231Z,11.6
2019-06-20T19:30:01.373Z,11.6
2019-06-20T19:35:03.019Z,12.0
2019-06-20T19:40:01.898Z,12.9
2019-06-20T19:45:01.256Z,12.9
2019-06-20T19:50:06.332Z,13.1
2019-06-20T19:55:01.236Z,13.0
2019-06-20T20:10:01.227Z,12.5
2019-06-20T20:15:01.221Z,11.7
2019-06-20T20:20:01.281Z,11.6
2019-06-20T20:25:01.285Z,11.0
2019-06-20T20:30:01.323Z,10.9
2019-06-20T20:35:01.323Z,10.9
2019-06-20T20:40:01.248Z,11.0
2019-06-20T20:45:01.317Z,11.2
2019-06-20T20:50:01.323Z,11.4
2019-06-20T20:55:01.245Z,11.5
2019-06-20T21:05:01.228Z,12.8
2019-06-20T21:10:01.252Z,12.8
2019-06-20T21:15:01.242Z,13.3
2019-06-20T21:30:01.345Z,13.8
2019-06-20T21:35:01.255Z,14.2
2019-06-20T21:40:01.315Z,13.0
2019-06-20T21:45:01.212Z,12.6
2019-06-20T21:50:01.252Z,12.4
2019-06-20T21:55:01.241Z,12.3
2019-06-20T22:00:01.321Z,11.9
2019-06-20T22:05:06.258Z,12.9
2019-06-20T22:10:01.321Z,13.0
2019-06-20T22:15:01.288Z,12.7
2019-06-20T22:21:01.408Z,12.5
2019-06-20T22:26:01.272Z,12.4
2019-06-20T22:31:01.342Z,12.0
2019-06-20T22:36:01.243Z,11.8
2019-06-20T22:41:01.324Z,12.0
2019-06-20T22:46:01.263Z,12.5
2019-06-20T22:51:01.319Z,12.8
2019-06-20T22:56:01.244Z,12.7
2019-06-20T23:06:01.347Z,13.2
2019-06-20T23:16:06.328Z,13.7
2019-06-20T23:21:05.393Z,14.2
2019-06-20T23:26:07.310Z,14.6
2019-06-20T23:32:01.370Z,14.6
2019-06-20T23:42:01.249Z,14.5
2019-06-20T23:47:01.219Z,14.2
2019-06-20T23:52:01.382Z,14.7
2019-06-20T23:57:01.253Z,15.4
